createdAt,value
2023-04-09T00:00:10.311Z,12.73
2023-04-09T00:02:38.678Z,11.33
2023-04-09T00:05:09.251Z,10.03
2023-04-09T00:07:37.559Z,10.10
2023-04-09T00:10:07.142Z,9.60
2023-04-09T00:12:35.473Z,11.17
2023-04-09T00:15:03.873Z,10.53
2023-04-09T00:17:32.213Z,9.13
2023-04-09T00:20:00.559Z,10.30
2023-04-09T00:22:30.255Z,12.60
2023-04-09T00:24:58.519Z,9.97
2023-04-09T00:27:27.173Z,9.07
2023-04-09T00:29:55.605Z,10.60
2023-04-09T00:32:23.880Z,9.93
2023-04-09T00:34:52.226Z,9.37
2023-04-09T00:37:20.675Z,9.70
2023-04-09T00:39:50.751Z,11.37
2023-04-09T00:42:19.083Z,13.33
2023-04-09T00:44:47.454Z,14.50
2023-04-09T00:47:15.941Z,13.40
2023-04-09T00:49:44.590Z,12.17
2023-04-09T00:52:12.955Z,12.73
2023-04-09T00:54:41.363Z,10.17
2023-04-09T00:57:12.391Z,10.57
2023-04-09T00:59:40.751Z,10.43
2023-04-09T01:02:10.910Z,11.83
2023-04-09T01:04:45.095Z,11.90
2023-04-09T01:07:18.692Z,12.53
2023-04-09T01:09:55.034Z,11.17
2023-04-09T01:12:41.818Z,11.43
2023-04-09T01:15:15.215Z,10.03
2023-04-09T01:17:48.450Z,10.07
2023-04-09T01:20:31.732Z,10.33
2023-04-09T01:23:15.533Z,9.57
2023-04-09T01:25:55.551Z,9.17
2023-04-09T01:28:29.172Z,9.00
2023-04-09T01:31:02.593Z,12.00
2023-04-09T01:33:32.633Z,10.57
2023-04-09T01:36:02.432Z,11.27
2023-04-09T01:38:30.746Z,11.93
2023-04-09T01:40:59.226Z,11.30
2023-04-09T01:43:29.413Z,9.70
2023-04-09T01:45:58.051Z,10.10
2023-04-09T01:48:27.717Z,9.07
2023-04-09T01:50:56.089Z,10.03
2023-04-09T01:53:24.641Z,10.70
2023-04-09T01:55:52.939Z,10.57
2023-04-09T01:58:21.204Z,10.47
2023-04-09T02:00:52.601Z,9.43
2023-04-09T02:03:26.503Z,8.93
2023-04-09T02:06:06.576Z,10.33
2023-04-09T02:08:39.252Z,9.03
2023-04-09T02:11:11.338Z,10.43
2023-04-09T02:13:41.951Z,10.37
2023-04-09T02:16:13.920Z,9.77
2023-04-09T02:18:42.265Z,9.33
2023-04-09T02:21:13.747Z,9.73
2023-04-09T02:23:42.157Z,10.93
2023-04-09T02:26:10.491Z,11.53
2023-04-09T02:28:41.381Z,10.13
2023-04-09T02:31:11.423Z,10.10
2023-04-09T02:33:39.719Z,10.53
2023-04-09T02:36:08.442Z,10.70
2023-04-09T02:38:36.710Z,10.37
2023-04-09T02:41:05.385Z,10.33
2023-04-09T02:43:33.661Z,9.93
2023-04-09T02:46:02.038Z,11.03
2023-04-09T02:48:31.762Z,10.77
2023-04-09T02:51:00.119Z,10.57
2023-04-09T02:53:28.432Z,10.40
2023-04-09T02:55:56.732Z,11.07
2023-04-09T02:58:25.045Z,10.80
2023-04-09T03:00:53.297Z,10.73
2023-04-09T03:03:21.772Z,12.37
2023-04-09T03:05:56.999Z,11.13
2023-04-09T03:08:28.234Z,11.00
2023-04-09T03:10:56.544Z,10.10
2023-04-09T03:13:26.018Z,11.47
2023-04-09T03:15:54.499Z,10.27
2023-04-09T03:18:22.878Z,9.83
2023-04-09T03:20:55.526Z,10.57
2023-04-09T03:23:23.784Z,10.10
2023-04-09T03:26:02.494Z,9.97
2023-04-09T03:28:31.217Z,10.20
2023-04-09T03:30:59.836Z,11.23
2023-04-09T03:33:28.132Z,12.80
2023-04-09T03:35:57.832Z,11.00
2023-04-09T03:38:28.122Z,10.83
2023-04-09T03:40:57.836Z,13.30
2023-04-09T03:43:26.406Z,11.17
2023-04-09T03:45:54.703Z,11.80
2023-04-09T03:48:22.977Z,10.10
2023-04-09T03:50:51.630Z,11.47
2023-04-09T03:53:21.332Z,10.27
2023-04-09T03:55:49.666Z,10.93
2023-04-09T03:58:17.923Z,11.60
2023-04-09T04:00:48.673Z,10.60
2023-04-09T04:03:17.343Z,11.73
2023-04-09T04:05:45.894Z,10.53
2023-04-09T04:08:15.743Z,11.53
2023-04-09T04:10:48.051Z,11.77
2023-04-09T04:13:16.400Z,11.10
2023-04-09T04:15:44.742Z,10.73
2023-04-09T04:18:13.041Z,10.87
2023-04-09T04:20:42.214Z,12.07
2023-04-09T04:23:13.414Z,11.27
2023-04-09T04:25:44.163Z,12.97
2023-04-09T04:28:12.451Z,11.03
2023-04-09T04:30:43.114Z,12.23
2023-04-09T04:33:11.585Z,13.43
2023-04-09T04:35:40.094Z,10.33
2023-04-09T04:38:08.506Z,10.37
2023-04-09T04:40:42.356Z,10.10
2023-04-09T04:43:12.051Z,10.27
2023-04-09T04:45:40.402Z,10.47
2023-04-09T04:48:08.753Z,10.87
2023-04-09T04:50:37.019Z,11.07
2023-04-09T04:53:05.440Z,11.33
2023-04-09T04:55:37.049Z,10.60
2023-04-09T04:58:05.329Z,10.80
2023-04-09T05:00:35.037Z,10.87
2023-04-09T05:03:03.539Z,11.23
2023-04-09T05:05:31.981Z,11.17
2023-04-09T05:08:00.560Z,11.20
2023-04-09T05:10:28.900Z,11.93
2023-04-09T05:12:57.213Z,11.73
2023-04-09T05:15:25.565Z,12.07
2023-04-09T05:17:55.376Z,11.53
2023-04-09T05:20:23.849Z,11.20
2023-04-09T05:22:52.326Z,10.97
2023-04-09T05:25:20.810Z,11.50
2023-04-09T05:27:49.136Z,13.80
2023-04-09T05:30:20.552Z,12.33
2023-04-09T05:32:51.761Z,12.17
2023-04-09T05:35:21.596Z,12.60
2023-04-09T05:37:49.902Z,12.80
2023-04-09T05:40:18.185Z,13.03
2023-04-09T05:42:46.545Z,14.03
2023-04-09T05:45:14.848Z,12.37
2023-04-09T05:47:46.146Z,12.47
2023-04-09T05:50:14.592Z,12.90
2023-04-09T05:52:44.249Z,12.67
2023-04-09T05:55:12.809Z,13.70
2023-04-09T05:57:42.214Z,14.37
2023-04-09T06:00:11.676Z,13.63
2023-04-09T06:02:40.052Z,12.43
2023-04-09T06:05:09.317Z,13.73
2023-04-09T06:07:37.572Z,13.27
2023-04-09T06:10:09.435Z,14.33
2023-04-09T06:12:37.833Z,14.17
2023-04-09T06:15:07.478Z,12.83
2023-04-09T06:17:35.910Z,13.77
2023-04-09T06:20:06.484Z,14.00
2023-04-09T06:22:34.791Z,14.90
2023-04-09T06:25:03.067Z,13.23
2023-04-09T06:27:35.789Z,14.03
2023-04-09T06:30:04.238Z,13.23
2023-04-09T06:32:37.695Z,13.83
2023-04-09T06:35:11.816Z,14.23
2023-04-09T06:37:45.623Z,14.23
2023-04-09T06:40:15.552Z,15.17
2023-04-09T06:42:47.844Z,14.90
2023-04-09T06:45:16.267Z,16.30
2023-04-09T06:47:44.681Z,15.03
2023-04-09T06:50:13.044Z,14.50
2023-04-09T06:52:41.604Z,13.17
2023-04-09T06:55:11.517Z,15.20
2023-04-09T06:57:40.190Z,15.07
2023-04-09T07:00:11.857Z,17.53
2023-04-09T07:02:40.427Z,15.37
2023-04-09T07:05:09.724Z,15.50
2023-04-09T07:07:38.860Z,15.07
2023-04-09T07:10:08.946Z,15.67
2023-04-09T07:12:37.260Z,14.53
2023-04-09T07:15:09.543Z,14.07
2023-04-09T07:17:37.956Z,15.43
2023-04-09T07:20:07.604Z,14.60
2023-04-09T07:22:37.444Z,14.43
2023-04-09T07:25:06.844Z,15.07
2023-04-09T07:27:35.169Z,14.37
2023-04-09T07:30:03.482Z,15.37
2023-04-09T07:32:36.027Z,16.13
2023-04-09T07:35:05.315Z,15.50
2023-04-09T07:37:33.624Z,16.63
2023-04-09T07:40:04.017Z,16.07
2023-04-09T07:42:32.738Z,16.77
2023-04-09T07:45:01.070Z,16.47
2023-04-09T07:47:38.518Z,16.30
2023-04-09T07:50:10.583Z,17.23
2023-04-09T07:52:38.959Z,17.57
2023-04-09T07:55:08.329Z,17.23
2023-04-09T07:57:36.856Z,17.10
2023-04-09T08:00:06.895Z,17.40
2023-04-09T08:02:35.491Z,17.50
2023-04-09T08:05:03.876Z,19.17
2023-04-09T08:07:33.596Z,18.40
2023-04-09T08:10:02.070Z,19.10
2023-04-09T08:12:30.407Z,20.83
2023-04-09T08:14:58.766Z,18.43
2023-04-09T08:17:27.472Z,18.57
2023-04-09T08:19:55.885Z,18.33
2023-04-09T08:22:24.220Z,18.23
2023-04-09T08:24:54.710Z,18.33
2023-04-09T08:27:23.029Z,19.03
2023-04-09T08:29:51.915Z,20.13
2023-04-09T08:32:20.277Z,20.63
2023-04-09T08:34:48.741Z,19.27
2023-04-09T08:37:17.580Z,19.63
2023-04-09T08:39:46.077Z,19.63
2023-04-09T08:42:16.642Z,22.47
2023-04-09T08:44:45.745Z,19.20
2023-04-09T08:47:14.452Z,19.03
2023-04-09T08:49:42.906Z,20.00
2023-04-09T08:52:11.337Z,19.73
2023-04-09T08:54:39.757Z,18.77
2023-04-09T08:57:08.564Z,20.87
2023-04-09T08:59:38.322Z,20.23
2023-04-09T09:02:11.157Z,20.13
2023-04-09T09:04:47.332Z,20.33
2023-04-09T09:07:16.444Z,20.37
2023-04-09T09:09:56.393Z,20.23
2023-04-09T09:12:36.901Z,18.87
2023-04-09T09:15:26.132Z,20.47
2023-04-09T09:17:59.246Z,21.07
2023-04-09T09:20:28.912Z,19.47
2023-04-09T09:22:57.849Z,20.37
2023-04-09T09:25:26.792Z,20.00
2023-04-09T09:27:55.956Z,20.83
2023-04-09T09:30:27.529Z,19.97
2023-04-09T09:33:05.699Z,20.63
2023-04-09T09:35:50.158Z,22.23
2023-04-09T09:38:19.410Z,20.37
2023-04-09T09:40:48.571Z,20.67
2023-04-09T09:43:18.790Z,23.00
2023-04-09T09:45:50.133Z,21.97
2023-04-09T09:48:18.656Z,21.17
2023-04-09T09:50:50.405Z,22.43
2023-04-09T09:53:23.994Z,21.83
2023-04-09T09:55:58.590Z,22.60
2023-04-09T09:58:33.605Z,22.63
2023-04-09T10:01:04.011Z,21.13
2023-04-09T10:03:37.675Z,22.40
2023-04-09T10:06:06.888Z,24.07
2023-04-09T10:08:38.014Z,22.43
2023-04-09T10:11:07.864Z,27.00
2023-04-09T10:13:41.769Z,24.90
2023-04-09T10:16:13.115Z,24.77
2023-04-09T10:18:42.891Z,22.43
2023-04-09T10:21:33.729Z,23.27
2023-04-09T10:24:05.889Z,22.37
2023-04-09T10:26:35.532Z,23.93
2023-04-09T10:29:08.716Z,23.93
2023-04-09T10:31:55.003Z,24.30
2023-04-09T10:34:25.844Z,24.47
2023-04-09T10:36:59.770Z,25.60
2023-04-09T10:39:30.918Z,23.43
2023-04-09T10:42:00.419Z,22.77
2023-04-09T10:44:31.883Z,22.93
2023-04-09T10:47:01.679Z,24.03
2023-04-09T10:49:38.233Z,23.47
2023-04-09T10:52:11.613Z,23.43
2023-04-09T10:54:47.078Z,23.13
2023-04-09T10:57:20.844Z,22.77
2023-04-09T10:59:52.128Z,22.87
2023-04-09T11:03:01.783Z,21.73
2023-04-09T11:05:35.126Z,22.20
2023-04-09T11:08:07.731Z,40.27
2023-04-09T11:10:36.416Z,26.00
2023-04-09T11:13:05.629Z,20.83
2023-04-09T11:15:36.531Z,19.80
2023-04-09T11:18:09.845Z,18.93
2023-04-09T11:20:38.461Z,18.63
2023-04-09T11:23:07.199Z,20.10
2023-04-09T11:25:36.167Z,19.47
2023-04-09T11:28:06.207Z,17.53
2023-04-09T11:30:35.637Z,17.77
2023-04-09T11:33:05.515Z,18.90
2023-04-09T11:35:37.224Z,18.07
2023-04-09T11:38:09.117Z,18.37
2023-04-09T11:40:43.537Z,18.43
2023-04-09T11:43:11.915Z,18.80
2023-04-09T11:45:40.735Z,20.80
2023-04-09T11:48:10.603Z,19.83
2023-04-09T11:50:39.379Z,18.63
2023-04-09T11:53:19.256Z,19.07
2023-04-09T11:55:51.982Z,18.87
2023-04-09T11:58:24.039Z,18.33
2023-04-09T12:00:55.845Z,17.57
2023-04-09T12:03:37.482Z,18.23
2023-04-09T12:06:09.283Z,16.97
2023-04-09T12:08:38.547Z,18.03
2023-04-09T12:11:11.401Z,15.97
2023-04-09T12:13:43.246Z,17.77
2023-04-09T12:16:12.740Z,15.50
2023-04-09T12:18:42.565Z,18.17
2023-04-09T12:21:11.354Z,18.13
2023-04-09T12:23:39.783Z,19.20
2023-04-09T12:26:08.269Z,18.50
2023-04-09T12:28:37.057Z,18.40
2023-04-09T12:31:06.046Z,18.60
2023-04-09T12:33:34.376Z,17.77
2023-04-09T12:36:04.166Z,17.50
2023-04-09T12:38:32.527Z,16.90
2023-04-09T12:41:01.303Z,16.50
2023-04-09T12:43:29.820Z,15.60
2023-04-09T12:45:58.228Z,14.50
2023-04-09T12:48:26.851Z,14.47
2023-04-09T12:50:55.242Z,14.87
2023-04-09T12:53:25.039Z,13.87
2023-04-09T12:55:53.478Z,13.57
2023-04-09T12:58:21.836Z,12.43
2023-04-09T13:00:50.323Z,13.00
2023-04-09T13:03:18.829Z,11.97
2023-04-09T13:05:47.344Z,12.13
2023-04-09T13:08:16.244Z,11.70
2023-04-09T13:10:46.469Z,10.97
2023-04-09T13:13:17.939Z,10.00
2023-04-09T13:15:46.331Z,9.80
2023-04-09T13:18:15.048Z,10.13
2023-04-09T13:20:43.493Z,10.37
2023-04-09T13:23:11.777Z,9.40
2023-04-09T13:25:40.284Z,10.10
2023-04-09T13:28:09.960Z,9.37
2023-04-09T13:30:38.356Z,9.33
2023-04-09T13:33:06.826Z,8.57
2023-04-09T13:35:35.179Z,9.47
2023-04-09T13:38:03.645Z,8.80
2023-04-09T13:40:32.009Z,9.40
2023-04-09T13:43:00.368Z,8.90
2023-04-09T13:45:30.168Z,9.63
2023-04-09T13:47:58.505Z,8.93
2023-04-09T13:50:27.055Z,9.20
2023-04-09T13:52:55.762Z,8.93
2023-04-09T13:55:24.162Z,8.80
2023-04-09T13:57:52.609Z,8.33
2023-04-09T14:00:21.146Z,7.97
2023-04-09T14:02:51.204Z,8.27
2023-04-09T14:05:19.830Z,8.43
2023-04-09T14:07:48.380Z,9.10
2023-04-09T14:10:17.060Z,9.23
2023-04-09T14:12:45.535Z,8.97
2023-04-09T14:15:14.146Z,10.23
2023-04-09T14:17:43.801Z,10.73
2023-04-09T14:20:14.221Z,9.43
2023-04-09T14:22:43.143Z,9.17
2023-04-09T14:25:11.904Z,9.03
2023-04-09T14:27:40.252Z,9.70
2023-04-09T14:30:11.573Z,8.67
2023-04-09T14:32:39.976Z,8.60
2023-04-09T14:35:09.038Z,8.70
2023-04-09T14:37:40.931Z,9.60
2023-04-09T14:40:10.608Z,9.87
2023-04-09T14:42:38.982Z,8.73
2023-04-09T14:45:08.368Z,9.73
2023-04-09T14:47:36.696Z,8.93
2023-04-09T14:50:09.854Z,8.80
2023-04-09T14:52:40.044Z,8.90
2023-04-09T14:55:12.460Z,7.80
2023-04-09T14:57:41.848Z,9.50
2023-04-09T15:00:12.474Z,9.43
2023-04-09T15:02:41.606Z,8.80
2023-04-09T15:05:11.366Z,9.47
2023-04-09T15:07:41.706Z,9.10
2023-04-09T15:10:11.144Z,9.87
2023-04-09T15:12:40.974Z,9.73
2023-04-09T15:15:11.219Z,9.40
2023-04-09T15:17:39.603Z,8.93
2023-04-09T15:20:09.481Z,9.97
2023-04-09T15:22:42.328Z,9.67
2023-04-09T15:25:13.051Z,9.03
2023-04-09T15:27:42.557Z,10.27
2023-04-09T15:30:11.531Z,9.53
2023-04-09T15:32:40.058Z,9.20
2023-04-09T15:35:09.665Z,8.67
2023-04-09T15:37:38.033Z,9.50
2023-04-09T15:40:09.661Z,9.03
2023-04-09T15:42:38.140Z,9.20
2023-04-09T15:45:07.968Z,9.20
2023-04-09T15:47:36.428Z,8.70
2023-04-09T15:50:05.171Z,8.60
2023-04-09T15:52:33.594Z,9.03
2023-04-09T15:55:02.278Z,9.30
2023-04-09T15:57:32.257Z,9.60
2023-04-09T16:00:00.728Z,9.20
2023-04-09T16:02:29.252Z,8.73
2023-04-09T16:04:57.770Z,9.00
2023-04-09T16:07:26.808Z,8.90
2023-04-09T16:09:55.333Z,8.63
2023-04-09T16:12:24.824Z,9.27
2023-04-09T16:14:54.930Z,9.43
2023-04-09T16:17:23.766Z,9.37
2023-04-09T16:19:52.255Z,9.80
2023-04-09T16:22:20.663Z,9.63
2023-04-09T16:24:49.031Z,8.70
2023-04-09T16:27:17.448Z,8.30
2023-04-09T16:29:46.266Z,9.53
2023-04-09T16:32:16.079Z,12.27
2023-04-09T16:34:44.519Z,13.20
2023-04-09T16:37:15.777Z,11.53
2023-04-09T16:39:44.166Z,9.60
2023-04-09T16:42:12.704Z,9.70
2023-04-09T16:44:41.151Z,8.97
2023-04-09T16:47:09.655Z,8.50
2023-04-09T16:49:39.451Z,8.83
2023-04-09T16:52:07.895Z,8.37
2023-04-09T16:54:36.347Z,8.70
2023-04-09T16:57:07.765Z,9.13
2023-04-09T16:59:36.708Z,8.20
2023-04-09T17:02:05.301Z,9.17
2023-04-09T17:04:34.583Z,9.13
2023-04-09T17:07:04.436Z,8.73
2023-04-09T17:09:32.945Z,8.77
2023-04-09T17:12:01.300Z,8.77
2023-04-09T17:14:33.731Z,8.60
2023-04-09T17:17:02.715Z,10.03
2023-04-09T17:19:31.120Z,11.90
2023-04-09T17:21:59.634Z,13.10
2023-04-09T17:24:29.898Z,15.77
2023-04-09T17:26:58.391Z,13.97
2023-04-09T17:29:26.707Z,13.23
2023-04-09T17:31:55.287Z,11.03
2023-04-09T17:34:24.172Z,10.90
2023-04-09T17:36:56.855Z,10.43
2023-04-09T17:39:25.342Z,10.60
2023-04-09T17:41:56.564Z,10.43
2023-04-09T17:44:25.948Z,10.57
2023-04-09T17:46:54.364Z,9.47
2023-04-09T17:49:22.769Z,10.40
2023-04-09T17:51:51.314Z,10.93
2023-04-09T17:54:19.702Z,10.47
2023-04-09T17:56:48.011Z,11.20
2023-04-09T17:59:17.912Z,11.03
2023-04-09T18:01:46.285Z,11.13
2023-04-09T18:04:16.181Z,10.97
2023-04-09T18:06:44.776Z,10.30
2023-04-09T18:09:13.502Z,10.87
2023-04-09T18:11:42.592Z,12.00
2023-04-09T18:14:11.194Z,11.40
2023-04-09T18:16:41.391Z,11.67
2023-04-09T18:19:11.813Z,11.47
2023-04-09T18:21:40.243Z,10.90
2023-04-09T18:24:08.923Z,11.77
2023-04-09T18:26:37.296Z,11.80
2023-04-09T18:29:05.992Z,11.60
2023-04-09T18:31:34.485Z,11.60
2023-04-09T18:34:04.175Z,12.30
2023-04-09T18:36:32.545Z,11.77
2023-04-09T18:39:00.892Z,11.60
2023-04-09T18:41:30.179Z,13.30
2023-04-09T18:43:58.514Z,12.60
2023-04-09T18:46:26.955Z,13.30
2023-04-09T18:48:55.488Z,14.23
2023-04-09T18:51:26.261Z,13.03
2023-04-09T18:53:54.853Z,11.57
2023-04-09T18:56:24.710Z,12.00
2023-04-09T18:58:53.281Z,11.53
2023-04-09T19:01:21.962Z,12.47
2023-04-09T19:03:50.564Z,13.67
2023-04-09T19:06:21.226Z,14.43
2023-04-09T19:08:57.131Z,15.80
2023-04-09T19:11:26.010Z,14.70
2023-04-09T19:13:54.495Z,27.87
2023-04-09T19:16:22.931Z,28.67
2023-04-09T19:18:51.598Z,18.57
2023-04-09T19:21:20.072Z,16.30
2023-04-09T19:23:48.428Z,12.70
2023-04-09T19:26:18.304Z,13.07
2023-04-09T19:28:46.940Z,11.93
2023-04-09T19:31:16.172Z,12.97
2023-04-09T19:33:44.500Z,13.53
2023-04-09T19:36:13.092Z,11.83
2023-04-09T19:38:41.797Z,13.73
2023-04-09T19:41:10.546Z,13.03
2023-04-09T19:43:41.911Z,12.33
2023-04-09T19:46:10.700Z,12.80
2023-04-09T19:48:40.827Z,11.53
2023-04-09T19:51:09.251Z,11.30
2023-04-09T19:53:37.861Z,14.10
2023-04-09T19:56:07.044Z,16.60
2023-04-09T19:58:35.391Z,14.67
2023-04-09T20:01:05.295Z,12.50
2023-04-09T20:03:34.021Z,13.00
2023-04-09T20:06:07.851Z,11.40
2023-04-09T20:08:36.669Z,13.87
2023-04-09T20:11:05.415Z,14.80
2023-04-09T20:13:34.252Z,13.83
2023-04-09T20:16:03.950Z,12.70
2023-04-09T20:18:32.313Z,14.03
2023-04-09T20:21:00.645Z,16.23
2023-04-09T20:23:29.058Z,12.30
2023-04-09T20:25:57.441Z,12.17
2023-04-09T20:28:26.054Z,12.63
2023-04-09T20:30:54.386Z,12.43
2023-04-09T20:33:24.113Z,12.77
2023-04-09T20:35:53.209Z,13.00
2023-04-09T20:38:23.881Z,14.40
2023-04-09T20:40:52.752Z,13.73
2023-04-09T20:43:21.404Z,11.80
2023-04-09T20:45:49.712Z,12.07
2023-04-09T20:48:19.003Z,10.40
2023-04-09T20:50:48.760Z,12.63
2023-04-09T20:53:17.933Z,10.53
2023-04-09T20:55:46.534Z,10.77
2023-04-09T20:58:14.896Z,10.53
2023-04-09T21:00:43.207Z,11.07
2023-04-09T21:03:11.713Z,11.30
2023-04-09T21:05:40.357Z,11.07
2023-04-09T21:08:14.659Z,11.10
2023-04-09T21:10:43.076Z,11.27
2023-04-09T21:13:11.388Z,10.37
2023-04-09T21:15:39.780Z,10.77
2023-04-09T21:18:08.352Z,10.60
2023-04-09T21:20:36.776Z,10.37
2023-04-09T21:23:05.148Z,10.13
2023-04-09T21:25:35.169Z,13.77
2023-04-09T21:28:03.518Z,10.30
2023-04-09T21:30:32.355Z,10.77
2023-04-09T21:33:04.157Z,10.57
2023-04-09T21:35:32.605Z,10.63
2023-04-09T21:38:02.861Z,10.60
2023-04-09T21:40:31.890Z,10.73
2023-04-09T21:43:01.733Z,10.23
2023-04-09T21:45:30.399Z,10.17
2023-04-09T21:47:58.788Z,11.03
2023-04-09T21:50:27.181Z,10.40
2023-04-09T21:52:55.575Z,10.93
2023-04-09T21:55:24.172Z,9.80
2023-04-09T21:57:53.622Z,10.80
2023-04-09T22:00:23.355Z,10.43
2023-04-09T22:02:51.839Z,11.00
2023-04-09T22:05:20.500Z,11.40
2023-04-09T22:07:48.765Z,11.77
2023-04-09T22:10:17.064Z,10.40
2023-04-09T22:12:45.608Z,9.47
2023-04-09T22:15:14.083Z,11.23
2023-04-09T22:17:44.391Z,10.23
2023-04-09T22:20:13.007Z,9.60
2023-04-09T22:22:42.487Z,10.43
2023-04-09T22:25:12.350Z,11.27
2023-04-09T22:27:40.681Z,10.50
2023-04-09T22:30:10.659Z,11.47
2023-04-09T22:32:39.049Z,10.30
2023-04-09T22:35:10.189Z,10.00
2023-04-09T22:37:38.644Z,10.13
2023-04-09T22:40:14.234Z,10.37
2023-04-09T22:42:43.450Z,11.63
2023-04-09T22:45:12.598Z,10.23
2023-04-09T22:47:41.219Z,11.07
2023-04-09T22:50:13.463Z,9.60
2023-04-09T22:52:41.855Z,10.03
2023-04-09T22:55:11.358Z,10.30
2023-04-09T22:57:42.717Z,10.33
2023-04-09T23:00:11.776Z,10.83
2023-04-09T23:02:40.255Z,12.83
2023-04-09T23:05:11.331Z,11.40
2023-04-09T23:07:39.751Z,11.40
2023-04-09T23:10:09.407Z,10.43
2023-04-09T23:12:37.721Z,10.23
2023-04-09T23:15:07.280Z,10.07
2023-04-09T23:17:36.010Z,10.40
2023-04-09T23:20:06.784Z,13.05
2023-04-09T23:22:36.563Z,12.50
2023-04-09T23:25:08.076Z,11.80
2023-04-09T23:27:36.393Z,12.67
2023-04-09T23:30:05.823Z,12.33
2023-04-09T23:32:34.239Z,11.50
2023-04-09T23:35:02.763Z,11.13
2023-04-09T23:37:31.399Z,15.27
2023-04-09T23:40:01.343Z,10.67
2023-04-09T23:42:32.924Z,11.23
2023-04-09T23:45:04.094Z,11.57
2023-04-09T23:47:33.623Z,11.47
2023-04-09T23:50:04.992Z,11.70
2023-04-09T23:52:34.894Z,12.87
2023-04-09T23:55:05.054Z,11.47
2023-04-09T23:57:33.728Z,10.67
